• Join FlightAware (Why Join?)
  • Login
  • US Flag 
02:57PM EST


 

Airport Tracker/Info


-or-


 

Live Flight TrackerFlight Track Log ✈ FLG3780 ✈ 25-Apr-2013 ✈ KALB - KDTW

Flight Track Log - Related Links

Times and Time Zones

All times are in EDT time to prevent confusion due to time zone crossing. See the FLG3780 flight status page for this flight to view local times or setup timezone preferences in your user account.

Time Position Orientation Groundspeed Altitude Reporting Facility
EDT Latitude Longitude Course Direction KTS MPH feet Rate Location/Type
09:30AM 42.7503 -73.8283 283° West 147 169 1,300  Level Boston Center
09:31AM 42.7542 -73.8567 281° West 154 177 2,100 1,920 Climbing Boston Center
09:32AM 42.7911 -73.9056 316° Northwest 201 231 4,300 2,280 Climbing Boston Center
09:32AM 42.8303 -73.9492 321° Northwest 232 267 6,200 2,520 Climbing Boston Center
09:33AM 42.8045 -74.1311 281° West  Level FlightAware Approximate
09:33AM 42.8814 -74.0097 319° Northwest 245 282 8,800  Level Boston Center
09:34AM 42.8209 -74.2458 281° West  Level FlightAware Approximate
09:35AM 42.8379 -74.3604 283° West  Level FlightAware Approximate
09:35AM 42.9369 -74.0736 320° Northwest 252 290 10,700  Level Boston Center
09:36AM 43.0189 -74.1667 320° Northwest 298 343 12,800 1,980 Climbing Boston Center
09:37AM 43.0358 -74.2694 283° West 296 341 14,700 1,920 Climbing Boston Center
09:38AM 43.0464 -74.3975 276° West 307 353 16,700 1,740 Climbing Boston Center
09:39AM 43.0528 -74.5114 274° West 328 377 18,200 1,500 Climbing Boston Center
09:40AM 43.0647 -74.6483 277° West 328 377 19,700 1,140 Climbing Boston Center
09:41AM 43.0725 -74.7794 275° West 338 389 20,500 780 Climbing Boston Center
09:42AM 43.0822 -74.9133 276° West 343 395 21,300 840 Climbing Boston Center
09:43AM 43.0894 -75.0531 274° West 363 418 22,200 900 Climbing Boston Center
09:44AM 43.0986 -75.1928 275° West 370 426 23,100 840 Climbing Boston Center
09:45AM 43.0931 -75.3347 267° West 370 426 23,900 720 Climbing Boston Center
09:46AM 43.0875 -75.4739 267° West 365 420 24,600 600 Climbing Boston Center
09:47AM 43.0836 -75.6158 268° West 365 420 25,200 600 Climbing Boston Center
09:48AM 43.0797 -75.7519 268° West 365 420 25,800 600 Climbing Boston Center
09:49AM 43.0733 -75.8967 267° West 365 420 26,500 540 Climbing Boston Center
09:50AM 43.0642 -76.1269 267° West 374 430 27,400 540 Climbing Cleveland Center
09:51AM 43.0547 -76.2611 265° West 368 423 28,000 300 Climbing Cleveland Center
09:52AM 43.0514 -76.3978 268° West 368 423 28,000  Level Cleveland Center
09:53AM 43.0458 -76.5317 267° West 368 423 28,000  Level Cleveland Center
09:54AM 43.0400 -76.6656 267° West 368 423 28,000  Level Cleveland Center
09:55AM 43.0319 -76.8025 265° West 368 423 28,000  Level Cleveland Center
09:56AM 43.0258 -76.9364 266° West 368 423 28,000  Level Cleveland Center
09:57AM 43.0197 -77.0731 267° West 368 423 28,000  Level Cleveland Center
09:58AM 43.0114 -77.2100 265° West 368 423 28,000  Level Cleveland Center
09:59AM 43.0047 -77.3439 266° West 368 423 28,000  Level Cleveland Center
10:00AM 42.9981 -77.4775 266° West 368 423 28,000  Level Cleveland Center
10:01AM 42.9892 -77.6172 265° West 368 423 28,000  Level Cleveland Center
10:02AM 42.9825 -77.7708 267° West 368 423 28,000  Level Cleveland Center
10:03AM 42.9753 -77.9072 266° West 368 423 28,000  Level Cleveland Center
10:04AM 42.9658 -78.0439 265° West 368 423 28,000  Level Cleveland Center
10:05AM 42.9583 -78.1833 266° West 374 430 28,000  Level Cleveland Center
10:06AM 42.9508 -78.3253 266° West 374 430 28,000  Level Cleveland Center
10:07AM 42.9408 -78.4619 264° West 369 425 28,000  Level Cleveland Center
10:08AM 42.9331 -78.6039 266° West 369 425 28,000  Level Cleveland Center
10:09AM 42.9167 -78.7406 261° West 369 425 28,000  Level Cleveland Center
10:10AM 42.8978 -78.8828 260° West 374 430 28,000  Level Cleveland Center
10:11AM 42.8769 -79.0222 259° West 374 430 28,000  Level Cleveland Center
10:12AM 42.8558 -79.1614 258° West 374 430 28,000  Level Cleveland Center
10:13AM 42.8386 -79.3006 260° West 374 430 28,000  Level Cleveland Center
10:14AM 42.8150 -79.4397 257° West 374 430 28,000  Level Cleveland Center
10:15AM 42.7994 -79.5503 259° West 374 430 28,000  Level Cleveland Center
10:16AM 42.7758 -79.7150 259° West 374 430 28,000  Level Cleveland Center
10:17AM 42.7558 -79.8536 259° West 374 430 28,000  Level Cleveland Center
10:18AM 42.7442 -79.9922 264° West 374 430 28,000  Level Cleveland Center
10:19AM 42.7408 -80.1336 268° West 374 430 28,000  Level Cleveland Center
10:20AM 42.7328 -80.2722 266° West 369 425 28,000  Level Cleveland Center
10:21AM 42.7289 -80.4108 268° West 369 425 28,000  Level Cleveland Center
10:22AM 42.7208 -80.5436 265° West 363 418 28,000 -240 Level Cleveland Center
10:23AM 42.7164 -80.6906 268° West 375 432 27,600 -900 Descending Cleveland Center
10:24AM 42.7100 -80.8261 266° West 375 432 26,200 -1,200 Descending Cleveland Center
10:25AM 42.7014 -80.9392 264° West 365 420 25,200 -1,140 Descending Cleveland Center
10:26AM 42.6864 -81.0661 261° West 348 400 24,000 -1,200 Descending Cleveland Center
10:27AM 42.6733 -81.1903 262° West 343 395 22,800 -1,200 Descending Cleveland Center
10:28AM 42.6578 -81.3228 261° West 343 395 21,600 -1,200 Descending Cleveland Center
10:29AM 42.6425 -81.4497 261° West 349 402 20,400 -1,200 Descending Cleveland Center
10:30AM 42.6289 -81.5822 262° West 355 409 19,200 -1,200 Descending Cleveland Center
10:31AM 42.6131 -81.6975 259° West 337 388 18,000 -1,140 Descending Cleveland Center
10:32AM 42.5972 -81.8214 260° West 332 382 17,000 -1,140 Descending Cleveland Center
10:33AM 42.5814 -81.9422 260° West 332 382 15,800 -1,200 Descending Cleveland Center
10:34AM 42.5675 -82.0603 261° West 332 382 14,600 -1,200 Descending Cleveland Center
10:35AM 42.5533 -82.1786 261° West 327 376 13,400 -1,200 Descending Cleveland Center
10:36AM 42.5392 -82.2908 260° West 321 369 12,200 -1,080 Descending Cleveland Center
10:37AM 42.5342 -82.3469 263° West 291 335 12,000 -240 Descending Cleveland Center
10:37AM 42.5272 -82.3947 259° West 301 346 12,000  Level Cleveland Center
10:38AM 42.5203 -82.4369 257° West 247 284 12,000  Level Cleveland Center
10:38AM 42.5153 -82.4844 262° West 271 312 12,000  Level Cleveland Center
10:39AM 42.5125 -82.5353 266° West 252 290 12,000 -900 Level Cleveland Center
10:39AM 42.4972 -82.5742 242° Southwest 258 297 11,100 -1,980 Descending Cleveland Center
10:40AM 42.4817 -82.6272 248° West 243 280 9,800 -1,920 Descending Cleveland Center
10:40AM 42.4686 -82.6578 240° Southwest 247 284 9,200 -840 Descending Cleveland Center
10:41AM 42.4508 -82.7106 245° Southwest 241 277 9,000 -240 Descending Cleveland Center
10:41AM 42.4378 -82.7383 238° Southwest 247 284 9,000  Level Cleveland Center
10:42AM 42.4244 -82.7856 249° West 195 224 9,000 -540 Level Cleveland Center
10:42AM 42.4117 -82.8047 228° Southwest 227 261 8,500 -1,380 Descending Cleveland Center
10:43AM 42.3814 -82.8628 235° Southwest 210 242 7,100 -960 Descending Cleveland Center
10:44AM 42.3867 -82.9108 278° West 205 236 7,000 -120 Descending Cleveland Center
10:44AM 42.3947 -82.9281 302° West 175 201 7,000  Level Cleveland Center
10:45AM 42.4250 -82.9714 313° West 208 239 7,000  Level Cleveland Center
10:45AM 42.4331 -82.9858 307° West 180 207 7,000  Level Cleveland Center
10:46AM 42.4594 -83.0206 316° Northwest 191 220 7,000  Level Cleveland Center
10:46AM 42.4694 -83.0378 308° West 187 215 7,000  Level Cleveland Center
10:47AM 42.4831 -83.0806 293° West 169 194 7,000  Level Cleveland Center
10:48AM 42.4792 -83.1339 264° West 149 171 7,000  Level FAA TRACON SMA TRACON (SMA)
10:48AM 42.4697 -83.1489 230° Southwest 148 170 7,000 -600 Level FAA TRACON SMA TRACON (SMA)
10:49AM 42.4589 -83.1572 210° Southwest 150 173 6,600 -1,380 Descending FAA TRACON SMA TRACON (SMA)
10:49AM 42.4456 -83.1669 208° Southwest 148 170 6,100 -1,200 Descending FAA TRACON SMA TRACON (SMA)
10:49AM 42.4347 -83.1750 209° Southwest 145 167 5,800 -1,080 Descending FAA TRACON SMA TRACON (SMA)
10:50AM 42.4222 -83.1844 209° Southwest 145 167 5,400 -900 Descending FAA TRACON SMA TRACON (SMA)
10:50AM 42.4103 -83.1933 209° Southwest 143 165 5,200 -780 Descending FAA TRACON SMA TRACON (SMA)
10:50AM 42.3994 -83.2017 210° Southwest 153 176 4,900 -960 Descending FAA TRACON SMA TRACON (SMA)
10:51AM 42.3881 -83.2103 209° Southwest 155 178 4,600 -780 Descending FAA TRACON SMA TRACON (SMA)
10:51AM 42.3742 -83.2208 209° Southwest 155 178 4,400 -900 Descending FAA TRACON SMA TRACON (SMA)
10:51AM 42.3625 -83.2292 208° Southwest 154 177 4,000 -1,080 Descending FAA TRACON SMA TRACON (SMA)
10:52AM 42.3483 -83.2397 209° Southwest 155 178 3,700 -900 Descending FAA TRACON SMA TRACON (SMA)
10:52AM 42.3369 -83.2478 208° Southwest 156 180 3,400 -900 Descending FAA TRACON SMA TRACON (SMA)
10:52AM 42.3236 -83.2572 208° Southwest 151 174 3,100 -900 Descending FAA TRACON SMA TRACON (SMA)
10:53AM 42.3106 -83.2678 211° Southwest 149 171 2,800 -780 Descending FAA TRACON SMA TRACON (SMA)
10:53AM 42.3003 -83.2747 207° Southwest 147 169 2,600 -780 Descending FAA TRACON SMA TRACON (SMA)
10:53AM 42.2872 -83.2844 209° Southwest 143 165 2,300 -900 Descending FAA TRACON SMA TRACON (SMA)